createdAt,value
2023-04-17T00:00:39.915Z,0.00
2023-04-17T00:01:39.874Z,0.00
2023-04-17T00:02:40.410Z,0.00
2023-04-17T00:03:39.951Z,0.00
2023-04-17T00:04:40.084Z,0.00
2023-04-17T00:05:39.822Z,0.00
2023-04-17T00:06:39.819Z,0.00
2023-04-17T00:07:39.792Z,0.00
2023-04-17T00:08:39.759Z,0.00
2023-04-17T00:09:39.754Z,0.00
2023-04-17T00:10:39.774Z,0.00
2023-04-17T00:11:39.759Z,0.00
2023-04-17T00:12:39.715Z,0.00
2023-04-17T00:13:39.707Z,0.00
2023-04-17T00:14:39.681Z,0.00
2023-04-17T00:15:39.668Z,0.00
2023-04-17T00:16:39.678Z,0.00
2023-04-17T00:17:42.675Z,0.00
2023-04-17T00:18:42.608Z,0.00
2023-04-17T00:19:39.616Z,0.00
2023-04-17T00:20:39.582Z,0.00
2023-04-17T00:21:39.611Z,0.00
2023-04-17T00:22:39.585Z,0.00
2023-04-17T00:23:39.546Z,0.00
2023-04-17T00:24:39.520Z,0.00
2023-04-17T00:25:39.571Z,0.00
2023-04-17T00:26:39.516Z,0.00
2023-04-17T00:27:39.528Z,0.00
2023-04-17T00:28:39.503Z,0.00
2023-04-17T00:29:39.468Z,0.00
2023-04-17T00:30:39.459Z,0.00
2023-04-17T00:31:39.476Z,0.00
2023-04-17T00:32:39.481Z,0.00
2023-04-17T00:33:39.416Z,0.00
2023-04-17T00:34:39.422Z,0.00
2023-04-17T00:35:39.390Z,0.00
2023-04-17T00:36:39.377Z,0.00
2023-04-17T00:37:42.370Z,0.00
2023-04-17T00:38:42.370Z,0.00
2023-04-17T00:39:39.342Z,0.00
2023-04-17T00:40:39.330Z,0.00
2023-04-17T00:41:39.312Z,0.00
2023-04-17T00:42:39.291Z,0.00
2023-04-17T00:43:39.292Z,0.00
2023-04-17T00:44:39.312Z,0.00
2023-04-17T00:45:39.308Z,0.00
2023-04-17T00:46:39.235Z,0.00
2023-04-17T00:47:39.319Z,0.00
2023-04-17T00:48:39.242Z,0.00
2023-04-17T00:49:39.214Z,0.00
2023-04-17T00:50:39.183Z,0.00
2023-04-17T00:51:39.229Z,0.00
2023-04-17T00:52:39.160Z,0.00
2023-04-17T00:53:39.143Z,0.00
2023-04-17T00:54:39.138Z,0.00
2023-04-17T00:55:39.135Z,0.00
2023-04-17T00:56:39.098Z,0.00
2023-04-17T00:57:42.125Z,0.00
2023-04-17T00:58:42.121Z,0.00
2023-04-17T00:59:39.063Z,0.00
2023-04-17T01:00:39.051Z,0.00
2023-04-17T01:01:39.085Z,0.00
2023-04-17T01:02:39.143Z,0.00
2023-04-17T01:03:39.224Z,0.00
2023-04-17T01:04:39.009Z,0.00
2023-04-17T01:05:38.967Z,0.00
2023-04-17T01:06:38.973Z,0.00
2023-04-17T01:07:38.952Z,0.00
2023-04-17T01:08:38.926Z,0.00
2023-04-17T01:09:38.951Z,0.00
2023-04-17T01:10:38.904Z,0.00
2023-04-17T01:11:38.886Z,0.00
2023-04-17T01:12:38.915Z,0.00
2023-04-17T01:13:38.892Z,0.00
2023-04-17T01:14:38.837Z,0.00
2023-04-17T01:15:38.837Z,0.00
2023-04-17T01:16:38.856Z,0.00
2023-04-17T01:17:41.823Z,0.00
2023-04-17T01:18:41.848Z,0.00
2023-04-17T01:19:38.778Z,0.00
2023-04-17T01:20:38.759Z,0.00
2023-04-17T01:21:38.751Z,0.00
2023-04-17T01:22:38.728Z,0.00
2023-04-17T01:23:38.720Z,0.00
2023-04-17T01:24:38.734Z,0.00
2023-04-17T01:25:38.713Z,0.00
2023-04-17T01:26:38.676Z,0.00
2023-04-17T01:27:38.672Z,0.00
2023-04-17T01:28:38.696Z,0.00
2023-04-17T01:29:38.700Z,0.00
2023-04-17T01:30:38.666Z,0.00
2023-04-17T01:31:38.620Z,0.00
2023-04-17T01:32:38.652Z,0.00
2023-04-17T01:33:38.603Z,0.00
2023-04-17T01:34:38.580Z,0.00
2023-04-17T01:35:38.598Z,0.00
2023-04-17T01:36:38.610Z,0.00
2023-04-17T01:37:41.555Z,0.00
2023-04-17T01:38:41.562Z,0.00
2023-04-17T01:39:38.520Z,0.00
2023-04-17T01:40:38.531Z,0.00
2023-04-17T01:41:38.535Z,0.00
2023-04-17T01:42:38.476Z,0.00
2023-04-17T01:43:38.449Z,0.00
2023-04-17T01:44:38.526Z,0.00
2023-04-17T01:45:38.423Z,0.00
2023-04-17T01:46:38.539Z,0.00
2023-04-17T01:47:38.482Z,0.00
2023-04-17T01:48:38.382Z,0.00
2023-04-17T01:49:38.401Z,0.00
2023-04-17T01:50:38.380Z,0.00
2023-04-17T01:51:38.342Z,0.00
2023-04-17T01:52:38.345Z,0.00
2023-04-17T01:53:38.348Z,0.00
2023-04-17T01:54:38.289Z,0.00
2023-04-17T01:55:38.340Z,0.00
2023-04-17T01:56:38.270Z,0.00
2023-04-17T01:57:41.252Z,0.00
2023-04-17T01:58:41.241Z,0.00
2023-04-17T01:59:38.223Z,0.00
2023-04-17T02:00:38.222Z,0.00
2023-04-17T02:01:38.285Z,0.00
2023-04-17T02:02:38.376Z,0.00
2023-04-17T02:03:38.342Z,0.00
2023-04-17T02:04:38.226Z,0.00
2023-04-17T02:05:38.144Z,0.00
2023-04-17T02:06:38.137Z,0.00
2023-04-17T02:07:38.133Z,0.00
2023-04-17T02:08:38.204Z,0.00
2023-04-17T02:09:38.093Z,0.00
2023-04-17T02:10:38.075Z,0.00
2023-04-17T02:11:38.081Z,0.00
2023-04-17T02:12:38.051Z,0.00
2023-04-17T02:13:38.066Z,0.00
2023-04-17T02:14:38.035Z,0.00
2023-04-17T02:15:38.026Z,0.00
2023-04-17T02:16:38.004Z,0.00
2023-04-17T02:17:41.034Z,0.00
2023-04-17T02:18:40.988Z,0.00
2023-04-17T02:19:37.959Z,0.00
2023-04-17T02:20:37.943Z,0.00
2023-04-17T02:21:37.945Z,0.00
2023-04-17T02:22:37.903Z,0.00
2023-04-17T02:23:37.936Z,0.00
2023-04-17T02:24:37.896Z,0.00
2023-04-17T02:25:37.876Z,0.00
2023-04-17T02:26:37.900Z,0.00
2023-04-17T02:27:37.850Z,0.00
2023-04-17T02:28:37.867Z,0.00
2023-04-17T02:29:37.831Z,0.00
2023-04-17T02:30:37.823Z,0.00
2023-04-17T02:31:37.817Z,0.00
2023-04-17T02:32:37.844Z,0.00
2023-04-17T02:33:37.820Z,0.00
2023-04-17T02:34:37.745Z,0.00
2023-04-17T02:35:37.733Z,0.00
2023-04-17T02:36:37.732Z,0.00
2023-04-17T02:37:40.724Z,0.00
2023-04-17T02:38:40.734Z,0.00
2023-04-17T02:39:37.682Z,0.00
2023-04-17T02:40:37.674Z,0.00
2023-04-17T02:41:37.646Z,0.00
2023-04-17T02:42:37.671Z,0.00
2023-04-17T02:43:37.626Z,0.00
2023-04-17T02:44:37.626Z,0.00
2023-04-17T02:45:37.593Z,0.00
2023-04-17T02:46:37.689Z,0.00
2023-04-17T02:47:37.692Z,0.00
2023-04-17T02:48:37.558Z,0.00
2023-04-17T02:49:37.573Z,0.00
2023-04-17T02:50:37.545Z,0.00
2023-04-17T02:51:37.539Z,0.00
2023-04-17T02:52:37.527Z,0.00
2023-04-17T02:53:37.491Z,0.00
2023-04-17T02:54:37.475Z,0.00
2023-04-17T02:55:37.469Z,0.00
2023-04-17T02:56:37.483Z,0.00
2023-04-17T02:57:40.482Z,0.00
2023-04-17T02:58:40.435Z,0.00
2023-04-17T02:59:37.410Z,0.00
2023-04-17T03:00:37.437Z,0.00
2023-04-17T03:01:37.379Z,0.00
2023-04-17T03:02:37.473Z,0.00
2023-04-17T03:03:37.548Z,0.00
2023-04-17T03:04:37.349Z,0.00
2023-04-17T03:05:37.336Z,0.00
2023-04-17T03:06:37.311Z,0.00
2023-04-17T03:07:37.295Z,0.00
2023-04-17T03:08:37.394Z,0.00
2023-04-17T03:09:37.299Z,0.00
2023-04-17T03:10:37.275Z,0.00
2023-04-17T03:11:37.243Z,0.00
2023-04-17T03:12:37.229Z,0.00
2023-04-17T03:13:37.231Z,0.00
2023-04-17T03:14:37.227Z,0.00
2023-04-17T03:15:37.205Z,0.00
2023-04-17T03:16:37.317Z,0.00
2023-04-17T03:17:40.203Z,0.00
2023-04-17T03:18:40.166Z,0.00
2023-04-17T03:19:40.437Z,0.00
2023-04-17T03:20:37.125Z,0.00
2023-04-17T03:21:37.102Z,0.00
2023-04-17T03:22:37.112Z,0.00
2023-04-17T03:23:37.088Z,0.00
2023-04-17T03:24:37.069Z,0.00
2023-04-17T03:25:37.080Z,0.00
2023-04-17T03:26:37.043Z,0.00
2023-04-17T03:27:37.029Z,0.00
2023-04-17T03:28:37.022Z,0.00
2023-04-17T03:29:37.006Z,0.00
2023-04-17T03:30:37.054Z,0.00
2023-04-17T03:31:37.094Z,0.00
2023-04-17T03:32:37.022Z,0.00
2023-04-17T03:33:36.943Z,0.00
2023-04-17T03:34:36.939Z,0.00
2023-04-17T03:35:36.918Z,0.00
2023-04-17T03:36:36.908Z,0.00
2023-04-17T03:37:39.915Z,0.00
2023-04-17T03:38:39.891Z,0.00
2023-04-17T03:39:36.863Z,0.00
2023-04-17T03:40:36.855Z,0.00
2023-04-17T03:41:36.831Z,0.00
2023-04-17T03:42:36.883Z,0.00
2023-04-17T03:43:36.853Z,0.00
2023-04-17T03:44:36.799Z,0.00
2023-04-17T03:45:36.808Z,0.00
2023-04-17T03:46:36.787Z,0.00
2023-04-17T03:47:36.793Z,0.00
2023-04-17T03:48:36.773Z,0.00
2023-04-17T03:49:36.785Z,0.00
2023-04-17T03:50:36.715Z,0.00
2023-04-17T03:51:36.700Z,0.00
2023-04-17T03:52:36.688Z,0.00
2023-04-17T03:53:36.683Z,0.00
2023-04-17T03:54:36.659Z,0.00
2023-04-17T03:55:36.665Z,0.00
2023-04-17T03:56:36.660Z,0.00
2023-04-17T03:57:39.615Z,0.00
2023-04-17T03:58:39.603Z,0.00
2023-04-17T03:59:36.584Z,0.00
2023-04-17T04:00:36.582Z,0.00
2023-04-17T04:01:36.599Z,0.00
2023-04-17T04:02:36.693Z,0.00
2023-04-17T04:03:36.696Z,0.00
2023-04-17T04:04:36.661Z,0.00
2023-04-17T04:05:36.507Z,0.00
2023-04-17T04:06:36.535Z,0.00
2023-04-17T04:07:36.514Z,0.00
2023-04-17T04:08:36.475Z,0.00
2023-04-17T04:09:36.445Z,0.00
2023-04-17T04:10:36.458Z,0.00
2023-04-17T04:11:36.484Z,0.00
2023-04-17T04:12:36.405Z,0.00
2023-04-17T04:13:36.404Z,0.00
2023-04-17T04:14:36.380Z,0.00
2023-04-17T04:15:36.360Z,0.00
2023-04-17T04:16:36.429Z,0.00
2023-04-17T04:17:39.413Z,0.00
2023-04-17T04:18:39.331Z,0.00
2023-04-17T04:19:36.319Z,0.00
2023-04-17T04:20:36.304Z,0.00
2023-04-17T04:21:36.291Z,0.00
2023-04-17T04:22:36.270Z,0.00
2023-04-17T04:23:36.316Z,0.00
2023-04-17T04:24:36.256Z,0.00
2023-04-17T04:25:36.225Z,0.00
2023-04-17T04:26:36.229Z,0.00
2023-04-17T04:27:36.203Z,0.00
2023-04-17T04:28:36.200Z,0.00
2023-04-17T04:29:36.235Z,0.00
2023-04-17T04:30:36.171Z,0.00
2023-04-17T04:31:36.196Z,0.00
2023-04-17T04:32:36.174Z,0.00
2023-04-17T04:33:36.125Z,0.00
2023-04-17T04:34:36.118Z,0.00
2023-04-17T04:35:37.229Z,0.00
2023-04-17T04:36:36.212Z,0.00
2023-04-17T04:37:39.065Z,0.00
2023-04-17T04:38:39.083Z,0.00
2023-04-17T04:39:36.090Z,0.00
2023-04-17T04:40:36.082Z,5.62
2023-04-17T04:41:36.043Z,5.62
2023-04-17T04:42:36.001Z,5.62
2023-04-17T04:43:35.982Z,5.62
2023-04-17T04:44:35.985Z,5.62
2023-04-17T04:45:35.977Z,5.62
2023-04-17T04:46:35.992Z,5.62
2023-04-17T04:47:35.990Z,5.62
2023-04-17T04:48:35.944Z,5.62
2023-04-17T04:49:35.934Z,5.62
2023-04-17T04:50:35.926Z,5.62
2023-04-17T04:51:35.873Z,5.62
2023-04-17T04:52:35.889Z,5.62
2023-04-17T04:53:35.851Z,5.62
2023-04-17T04:54:35.876Z,5.62
2023-04-17T04:55:35.822Z,11.25
2023-04-17T04:56:35.818Z,11.25
2023-04-17T04:57:38.807Z,11.25
2023-04-17T04:58:38.794Z,11.25
2023-04-17T04:59:37.905Z,11.25
2023-04-17T05:00:35.800Z,11.25
2023-04-17T05:01:35.838Z,11.25
2023-04-17T05:02:35.878Z,11.25
2023-04-17T05:03:35.926Z,11.25
2023-04-17T05:04:35.876Z,11.25
2023-04-17T05:05:35.709Z,16.88
2023-04-17T05:06:35.698Z,16.88
2023-04-17T05:07:35.670Z,16.88
2023-04-17T05:08:35.675Z,16.88
2023-04-17T05:09:35.661Z,16.88
2023-04-17T05:10:35.649Z,16.88
2023-04-17T05:11:35.625Z,16.88
2023-04-17T05:12:35.648Z,22.50
2023-04-17T05:13:35.622Z,22.50
2023-04-17T05:14:35.607Z,22.50
2023-04-17T05:15:35.563Z,22.50
2023-04-17T05:16:35.608Z,22.50
2023-04-17T05:17:38.551Z,22.50
2023-04-17T05:18:38.579Z,28.12
2023-04-17T05:19:35.516Z,28.12
2023-04-17T05:20:35.525Z,28.12
2023-04-17T05:21:35.492Z,28.12
2023-04-17T05:22:35.506Z,28.12
2023-04-17T05:23:35.473Z,28.12
2023-04-17T05:24:35.461Z,28.12
2023-04-17T05:25:35.430Z,33.75
2023-04-17T05:26:35.431Z,33.75
2023-04-17T05:27:35.414Z,33.75
2023-04-17T05:28:35.470Z,33.75
2023-04-17T05:29:35.386Z,33.75
2023-04-17T05:30:35.371Z,33.75
2023-04-17T05:31:35.406Z,39.38
2023-04-17T05:32:35.408Z,39.38
2023-04-17T05:33:35.317Z,39.38
2023-04-17T05:34:35.362Z,39.38
2023-04-17T05:35:35.298Z,39.38
2023-04-17T05:36:35.292Z,45.00
2023-04-17T05:37:38.304Z,45.00
2023-04-17T05:38:38.270Z,45.00
2023-04-17T05:39:35.240Z,45.00
2023-04-17T05:40:35.230Z,45.00
2023-04-17T05:41:35.216Z,50.62
2023-04-17T05:42:35.200Z,50.62
2023-04-17T05:43:35.256Z,50.62
2023-04-17T05:44:35.171Z,50.62
2023-04-17T05:45:35.176Z,56.25
2023-04-17T05:46:35.135Z,56.25
2023-04-17T05:47:35.152Z,56.25
2023-04-17T05:48:35.124Z,56.25
2023-04-17T05:49:35.123Z,61.88
2023-04-17T05:50:35.087Z,61.88
2023-04-17T05:51:35.138Z,61.88
2023-04-17T05:52:35.693Z,61.88
2023-04-17T05:53:35.050Z,67.50
2023-04-17T05:54:35.035Z,67.50
2023-04-17T05:55:35.021Z,67.50
2023-04-17T05:56:35.012Z,67.50
2023-04-17T05:57:38.039Z,67.50
2023-04-17T05:58:38.054Z,67.50
2023-04-17T05:59:34.974Z,67.50
2023-04-17T06:00:34.956Z,67.50
2023-04-17T06:01:34.925Z,67.50
2023-04-17T06:02:35.144Z,73.12
2023-04-17T06:03:35.425Z,73.12
2023-04-17T06:04:35.197Z,73.12
2023-04-17T06:05:34.919Z,73.12
2023-04-17T06:06:34.877Z,78.75
2023-04-17T06:07:34.873Z,78.75
2023-04-17T06:08:34.856Z,78.75
2023-04-17T06:09:34.831Z,84.38
2023-04-17T06:10:34.873Z,84.38
2023-04-17T06:11:34.799Z,84.38
2023-04-17T06:12:34.793Z,84.38
2023-04-17T06:13:34.784Z,90.00
2023-04-17T06:14:34.779Z,90.00
2023-04-17T06:15:34.744Z,90.00
2023-04-17T06:16:34.819Z,95.62
2023-04-17T06:17:37.841Z,95.62
2023-04-17T06:18:37.746Z,101.25
2023-04-17T06:19:34.712Z,101.25
2023-04-17T06:20:34.686Z,106.88
2023-04-17T06:21:34.674Z,106.88
2023-04-17T06:22:34.704Z,112.50
2023-04-17T06:23:34.640Z,112.50
2023-04-17T06:24:34.684Z,118.12
2023-04-17T06:25:34.629Z,123.75
2023-04-17T06:26:34.600Z,123.75
2023-04-17T06:27:36.806Z,129.38
2023-04-17T06:28:34.647Z,129.38
2023-04-17T06:29:34.552Z,135.00
2023-04-17T06:30:34.603Z,135.00
2023-04-17T06:31:34.600Z,135.00
2023-04-17T06:32:34.564Z,140.62
2023-04-17T06:33:34.495Z,146.25
2023-04-17T06:34:34.489Z,151.88
2023-04-17T06:35:34.484Z,163.12
2023-04-17T06:36:34.517Z,163.12
2023-04-17T06:37:37.477Z,174.38
2023-04-17T06:38:37.477Z,185.62
2023-04-17T06:39:34.428Z,191.25
2023-04-17T06:40:34.422Z,196.88
2023-04-17T06:41:34.401Z,202.50
2023-04-17T06:42:34.400Z,208.12
2023-04-17T06:43:34.379Z,213.75
2023-04-17T06:44:34.429Z,213.75
2023-04-17T06:45:34.350Z,219.38
2023-04-17T06:46:34.418Z,219.38
2023-04-17T06:47:34.424Z,219.38
2023-04-17T06:48:34.306Z,219.38
2023-04-17T06:49:34.310Z,219.38
2023-04-17T06:50:34.342Z,219.38
2023-04-17T06:51:34.260Z,219.38
2023-04-17T06:52:34.297Z,219.38
2023-04-17T06:53:34.256Z,219.38
2023-04-17T06:54:34.228Z,225.00
2023-04-17T06:55:34.231Z,241.88
2023-04-17T06:56:34.238Z,253.12
2023-04-17T06:57:37.182Z,247.50
2023-04-17T06:58:37.171Z,258.75
2023-04-17T06:59:34.159Z,247.50
2023-04-17T07:00:34.164Z,241.88
2023-04-17T07:01:34.211Z,253.12
2023-04-17T07:02:34.232Z,253.12
2023-04-17T07:03:34.323Z,247.50
2023-04-17T07:04:34.131Z,253.12
2023-04-17T07:05:34.069Z,253.12
2023-04-17T07:06:34.084Z,247.50
2023-04-17T07:07:34.047Z,264.38
2023-04-17T07:08:34.009Z,264.38
2023-04-17T07:09:34.016Z,258.75
2023-04-17T07:10:34.005Z,253.12
2023-04-17T07:11:34.043Z,247.50
2023-04-17T07:12:33.965Z,247.50
2023-04-17T07:13:33.975Z,253.12
2023-04-17T07:14:33.949Z,247.50
2023-04-17T07:15:33.983Z,241.88
2023-04-17T07:16:34.014Z,241.88
2023-04-17T07:17:37.006Z,241.88
2023-04-17T07:18:36.884Z,241.88
2023-04-17T07:19:33.882Z,241.88
2023-04-17T07:20:33.909Z,236.25
2023-04-17T07:21:33.850Z,247.50
2023-04-17T07:22:33.855Z,241.88
2023-04-17T07:23:33.814Z,236.25
2023-04-17T07:24:33.795Z,236.25
2023-04-17T07:25:33.796Z,230.62
2023-04-17T07:26:33.840Z,230.62
2023-04-17T07:27:33.759Z,230.62
2023-04-17T07:28:33.744Z,230.62
2023-04-17T07:29:33.736Z,230.62
2023-04-17T07:30:33.720Z,236.25
2023-04-17T07:31:33.738Z,236.25
2023-04-17T07:32:33.796Z,236.25
2023-04-17T07:33:33.689Z,241.88
2023-04-17T07:34:33.663Z,236.25
2023-04-17T07:35:33.683Z,236.25
2023-04-17T07:36:33.632Z,236.25
2023-04-17T07:37:36.653Z,236.25
2023-04-17T07:38:38.101Z,236.25
2023-04-17T07:39:33.602Z,236.25
2023-04-17T07:40:33.642Z,236.25
2023-04-17T07:41:33.584Z,241.88
2023-04-17T07:42:33.565Z,241.88
2023-04-17T07:43:33.543Z,247.50
2023-04-17T07:44:33.549Z,247.50
2023-04-17T07:45:33.526Z,247.50
2023-04-17T07:46:33.638Z,247.50
2023-04-17T07:47:33.547Z,247.50
2023-04-17T07:48:33.473Z,253.12
2023-04-17T07:49:33.458Z,258.75
2023-04-17T07:50:33.457Z,258.75
2023-04-17T07:51:33.454Z,258.75
2023-04-17T07:52:33.470Z,253.12
2023-04-17T07:53:33.431Z,253.12
2023-04-17T07:54:33.395Z,253.12
2023-04-17T07:55:33.384Z,253.12
2023-04-17T07:56:33.388Z,253.12
2023-04-17T07:57:36.417Z,253.12
2023-04-17T07:58:36.378Z,253.12
2023-04-17T07:59:33.356Z,258.75
2023-04-17T08:00:33.321Z,253.12
2023-04-17T08:01:33.308Z,247.50
2023-04-17T08:02:33.380Z,241.88
2023-04-17T08:03:33.641Z,241.88
2023-04-17T08:04:33.470Z,230.62
2023-04-17T08:05:33.270Z,219.38
2023-04-17T08:06:33.248Z,213.75
2023-04-17T08:07:33.225Z,213.75
2023-04-17T08:08:33.201Z,213.75
2023-04-17T08:09:33.278Z,202.50
2023-04-17T08:10:33.182Z,208.12
2023-04-17T08:11:42.696Z,202.50
2023-04-17T08:12:34.147Z,202.50
2023-04-17T08:13:33.153Z,196.88
2023-04-17T08:14:33.125Z,202.50
2023-04-17T08:15:33.161Z,191.25
2023-04-17T08:16:33.146Z,185.62
2023-04-17T08:17:36.132Z,185.62
2023-04-17T08:18:36.085Z,185.62
2023-04-17T08:19:33.060Z,185.62
2023-04-17T08:20:33.032Z,191.25
2023-04-17T08:21:33.068Z,185.62
2023-04-17T08:22:33.016Z,196.88
2023-04-17T08:23:33.047Z,191.25
2023-04-17T08:24:33.013Z,185.62
2023-04-17T08:25:33.026Z,191.25
2023-04-17T08:26:32.977Z,185.62
2023-04-17T08:27:33.024Z,185.62
2023-04-17T08:28:32.961Z,196.88
2023-04-17T08:29:32.948Z,168.75
2023-04-17T08:30:32.968Z,174.38
2023-04-17T08:31:32.904Z,185.62
2023-04-17T08:32:32.942Z,185.62
2023-04-17T08:33:32.927Z,185.62
2023-04-17T08:34:32.853Z,180.00
2023-04-17T08:35:32.858Z,180.00
2023-04-17T08:36:32.859Z,180.00
2023-04-17T08:37:35.835Z,180.00
2023-04-17T08:38:35.864Z,180.00
2023-04-17T08:39:32.806Z,180.00
2023-04-17T08:40:32.794Z,180.00
2023-04-17T08:41:32.792Z,180.00
2023-04-17T08:42:32.760Z,180.00
2023-04-17T08:43:32.743Z,174.38
2023-04-17T08:44:32.760Z,174.38
2023-04-17T08:45:32.719Z,174.38
2023-04-17T08:46:32.768Z,174.38
2023-04-17T08:47:32.718Z,174.38
2023-04-17T08:48:32.725Z,174.38
2023-04-17T08:49:32.662Z,174.38
2023-04-17T08:50:32.679Z,174.38
2023-04-17T08:51:32.648Z,174.38
2023-04-17T08:52:32.617Z,174.38
2023-04-17T08:53:32.625Z,174.38
2023-04-17T08:54:32.649Z,174.38
2023-04-17T08:55:32.600Z,174.38
2023-04-17T08:56:32.539Z,174.38
2023-04-17T08:57:35.559Z,174.38
2023-04-17T08:58:35.534Z,174.38
2023-04-17T08:59:32.512Z,180.00
2023-04-17T09:00:32.567Z,180.00
2023-04-17T09:01:32.519Z,174.38
2023-04-17T09:02:32.591Z,174.38
2023-04-17T09:03:32.594Z,174.38
2023-04-17T09:04:32.509Z,174.38
2023-04-17T09:05:32.444Z,174.38
2023-04-17T09:06:32.446Z,174.38
2023-04-17T09:07:32.415Z,174.38
2023-04-17T09:08:32.384Z,174.38
2023-04-17T09:09:33.160Z,174.38
2023-04-17T09:10:32.389Z,174.38
2023-04-17T09:11:32.411Z,174.38
2023-04-17T09:12:32.434Z,174.38
2023-04-17T09:13:32.330Z,123.75
2023-04-17T09:14:32.311Z,174.38
2023-04-17T09:15:32.330Z,180.00
2023-04-17T09:16:32.395Z,180.00
2023-04-17T09:17:35.378Z,180.00
2023-04-17T09:18:35.263Z,180.00
2023-04-17T09:19:34.616Z,180.00
2023-04-17T09:20:32.233Z,146.25
2023-04-17T09:21:32.246Z,185.62
2023-04-17T09:22:32.338Z,191.25
2023-04-17T09:23:32.220Z,191.25
2023-04-17T09:24:32.168Z,196.88
2023-04-17T09:25:32.167Z,196.88
2023-04-17T09:26:32.176Z,185.62
2023-04-17T09:27:32.130Z,180.00
2023-04-17T09:28:32.147Z,135.00
2023-04-17T09:29:32.118Z,191.25
2023-04-17T09:30:32.086Z,135.00
2023-04-17T09:31:32.316Z,180.00
2023-04-17T09:32:32.120Z,174.38
2023-04-17T09:33:32.083Z,168.75
2023-04-17T09:34:32.059Z,118.12
2023-04-17T09:35:32.035Z,118.12
2023-04-17T09:36:32.015Z,163.12
2023-04-17T09:37:34.997Z,174.38
2023-04-17T09:38:35.030Z,174.38
2023-04-17T09:39:31.985Z,174.38
2023-04-17T09:40:32.001Z,168.75
2023-04-17T09:41:31.940Z,174.38
2023-04-17T09:42:31.942Z,174.38
2023-04-17T09:43:31.924Z,174.38
2023-04-17T09:44:31.926Z,174.38
2023-04-17T09:45:31.915Z,180.00
2023-04-17T09:46:31.879Z,180.00
2023-04-17T09:47:31.870Z,180.00
2023-04-17T09:48:31.882Z,180.00
2023-04-17T09:49:31.827Z,180.00
2023-04-17T09:50:31.826Z,180.00
2023-04-17T09:51:31.810Z,185.62
2023-04-17T09:52:31.788Z,191.25
2023-04-17T09:53:31.771Z,196.88
2023-04-17T09:54:31.782Z,196.88
2023-04-17T09:55:31.772Z,191.25
2023-04-17T09:56:31.760Z,191.25
2023-04-17T09:57:34.726Z,185.62
2023-04-17T09:58:34.771Z,191.25
2023-04-17T09:59:31.697Z,185.62
2023-04-17T10:00:31.745Z,118.12
2023-04-17T10:01:31.917Z,123.75
2023-04-17T10:02:31.778Z,168.75
2023-04-17T10:03:32.989Z,118.12
2023-04-17T10:04:31.680Z,157.50
2023-04-17T10:05:31.648Z,180.00
2023-04-17T10:06:31.585Z,180.00
2023-04-17T10:07:31.580Z,180.00
2023-04-17T10:08:31.566Z,180.00
2023-04-17T10:09:31.551Z,180.00
2023-04-17T10:10:31.615Z,180.00
2023-04-17T10:11:31.594Z,180.00
2023-04-17T10:12:32.916Z,180.00
2023-04-17T10:13:31.498Z,185.62
2023-04-17T10:14:31.495Z,185.62
2023-04-17T10:15:31.490Z,146.25
2023-04-17T10:16:31.593Z,185.62
2023-04-17T10:17:34.682Z,191.25
2023-04-17T10:18:34.427Z,185.62
2023-04-17T10:19:31.422Z,185.62
2023-04-17T10:20:31.397Z,191.25
2023-04-17T10:21:31.399Z,191.25
2023-04-17T10:22:31.414Z,191.25
2023-04-17T10:23:31.499Z,185.62
2023-04-17T10:24:31.339Z,185.62
2023-04-17T10:25:31.328Z,185.62
2023-04-17T10:26:31.371Z,185.62
2023-04-17T10:27:31.302Z,180.00
2023-04-17T10:28:31.288Z,135.00
2023-04-17T10:29:31.273Z,185.62
2023-04-17T10:30:31.257Z,191.25
2023-04-17T10:31:31.315Z,191.25
2023-04-17T10:32:31.342Z,191.25
2023-04-17T10:33:31.228Z,196.88
2023-04-17T10:34:31.198Z,191.25
2023-04-17T10:35:31.208Z,123.75
2023-04-17T10:36:31.176Z,123.75
2023-04-17T10:37:34.213Z,168.75
2023-04-17T10:38:34.172Z,191.25
2023-04-17T10:39:31.144Z,191.25
2023-04-17T10:40:31.140Z,191.25
2023-04-17T10:41:31.112Z,191.25
2023-04-17T10:42:31.092Z,191.25
2023-04-17T10:43:31.143Z,191.25
2023-04-17T10:44:31.064Z,191.25
2023-04-17T10:45:31.104Z,191.25
2023-04-17T10:46:31.276Z,191.25
2023-04-17T10:47:31.064Z,191.25
2023-04-17T10:48:31.092Z,185.62
2023-04-17T10:49:31.034Z,191.25
2023-04-17T10:50:31.075Z,191.25
2023-04-17T10:51:30.975Z,191.25
2023-04-17T10:52:30.964Z,191.25
2023-04-17T10:53:30.943Z,185.62
2023-04-17T10:54:30.935Z,185.62
2023-04-17T10:55:30.960Z,191.25
2023-04-17T10:56:31.006Z,191.25
2023-04-17T10:57:33.907Z,191.25
2023-04-17T10:58:33.899Z,191.25
2023-04-17T10:59:30.907Z,191.25
2023-04-17T11:00:30.858Z,191.25
2023-04-17T11:01:30.875Z,191.25
2023-04-17T11:02:30.961Z,191.25
2023-04-17T11:03:30.870Z,191.25
2023-04-17T11:04:31.130Z,191.25
2023-04-17T11:05:30.798Z,191.25
2023-04-17T11:06:30.819Z,191.25
2023-04-17T11:07:30.818Z,191.25
2023-04-17T11:08:30.756Z,191.25
2023-04-17T11:09:30.766Z,191.25
2023-04-17T11:10:30.744Z,191.25
2023-04-17T11:11:43.593Z,191.25
2023-04-17T11:12:31.749Z,191.25
2023-04-17T11:13:30.690Z,191.25
2023-04-17T11:14:30.696Z,191.25
2023-04-17T11:15:30.681Z,191.25
2023-04-17T11:16:30.762Z,191.25
2023-04-17T11:17:33.693Z,191.25
2023-04-17T11:18:33.701Z,191.25
2023-04-17T11:19:30.635Z,191.25
2023-04-17T11:20:30.667Z,191.25
2023-04-17T11:21:30.592Z,191.25
2023-04-17T11:22:30.580Z,191.25
2023-04-17T11:23:30.566Z,191.25
2023-04-17T11:24:30.611Z,196.88
2023-04-17T11:25:30.535Z,196.88
2023-04-17T11:26:30.541Z,196.88
2023-04-17T11:27:30.514Z,196.88
2023-04-17T11:28:30.518Z,196.88
2023-04-17T11:29:30.510Z,196.88
2023-04-17T11:30:30.523Z,196.88
2023-04-17T11:31:30.600Z,196.88
2023-04-17T11:32:30.484Z,196.88
2023-04-17T11:33:30.438Z,191.25
2023-04-17T11:34:30.525Z,196.88
2023-04-17T11:35:30.440Z,196.88
2023-04-17T11:36:30.508Z,146.25
2023-04-17T11:37:33.377Z,118.12
2023-04-17T11:38:33.401Z,196.88
2023-04-17T11:39:30.383Z,191.25
2023-04-17T11:40:30.366Z,191.25
2023-04-17T11:41:30.330Z,185.62
2023-04-17T11:42:30.363Z,180.00
2023-04-17T11:43:30.304Z,180.00
2023-04-17T11:44:30.304Z,180.00
2023-04-17T11:45:30.284Z,185.62
2023-04-17T11:46:30.325Z,112.50
2023-04-17T11:47:30.304Z,112.50
2023-04-17T11:48:30.336Z,163.12
2023-04-17T11:49:30.318Z,112.50
2023-04-17T11:50:30.219Z,151.88
2023-04-17T11:51:30.207Z,185.62
2023-04-17T11:52:30.209Z,196.88
2023-04-17T11:53:30.175Z,191.25
2023-04-17T11:54:30.223Z,191.25
2023-04-17T11:55:30.162Z,191.25
2023-04-17T11:56:30.141Z,191.25
2023-04-17T11:57:33.137Z,191.25
2023-04-17T11:58:33.139Z,196.88
2023-04-17T11:59:30.096Z,196.88
2023-04-17T12:00:30.144Z,196.88
2023-04-17T12:01:30.074Z,196.88
2023-04-17T12:02:30.252Z,196.88
2023-04-17T12:03:30.276Z,202.50
2023-04-17T12:04:30.330Z,202.50
2023-04-17T12:05:30.115Z,202.50
2023-04-17T12:06:30.088Z,202.50
2023-04-17T12:07:29.986Z,208.12
2023-04-17T12:08:29.983Z,208.12
2023-04-17T12:09:29.970Z,213.75
2023-04-17T12:10:29.950Z,213.75
2023-04-17T12:11:29.942Z,213.75
2023-04-17T12:12:29.955Z,202.50
2023-04-17T12:13:29.904Z,202.50
2023-04-17T12:14:29.894Z,202.50
2023-04-17T12:15:29.881Z,123.75
2023-04-17T12:16:29.926Z,123.75
2023-04-17T12:17:32.938Z,208.12
2023-04-17T12:18:32.847Z,213.75
2023-04-17T12:19:30.172Z,213.75
2023-04-17T12:20:29.819Z,202.50
2023-04-17T12:21:29.816Z,213.75
2023-04-17T12:22:29.781Z,219.38
2023-04-17T12:23:29.805Z,230.62
2023-04-17T12:24:29.755Z,230.62
2023-04-17T12:25:29.760Z,230.62
2023-04-17T12:26:29.735Z,230.62
2023-04-17T12:27:29.714Z,230.62
2023-04-17T12:28:29.705Z,230.62
2023-04-17T12:29:43.263Z,219.38
2023-04-17T12:30:30.681Z,219.38
2023-04-17T12:31:29.741Z,225.00
2023-04-17T12:32:29.697Z,225.00
2023-04-17T12:33:29.652Z,219.38
2023-04-17T12:34:29.633Z,225.00
2023-04-17T12:35:29.677Z,219.38
2023-04-17T12:36:29.631Z,225.00
2023-04-17T12:37:32.589Z,219.38
2023-04-17T12:38:32.572Z,213.75
2023-04-17T12:39:29.557Z,151.88
2023-04-17T12:40:29.561Z,230.62
2023-04-17T12:41:29.587Z,230.62
2023-04-17T12:42:31.561Z,230.62
2023-04-17T12:43:30.509Z,225.00
2023-04-17T12:44:29.497Z,225.00
2023-04-17T12:45:29.499Z,225.00
2023-04-17T12:46:29.456Z,151.88
2023-04-17T12:47:29.510Z,185.62
2023-04-17T12:48:31.347Z,151.88
2023-04-17T12:49:29.412Z,151.88